Terminal Aerodrome Forecast
Issued by NWS

Home | Current Version | Previous Version | Text Only | Print | Product List | Glossary On
Versions: 1 2 3 4 5 6 7 8 9 10 11 12 13 14 15 16 17 18
000
FTUS43 KDTX 031139
TAFDET
TAF
KDET 031139Z 0312/0412 VRB03KT P6SM BKN070
     FM031600 30004KT P6SM SCT050
     FM031900 25005KT P6SM BKN060
     FM040200 20005KT P6SM SCT060 BKN150
     FM040700 19004KT 6SM -SHRA SCT040 BKN060
     FM041000 19005KT 3SM -SHRA SCT012 BKN035=

USA.gov is the U.S. government's official web portal to all federal, state and local government web resources and services.